Nearby METAR Reports

 

MWCR - Owen Roberts, Grand Cayman
Distance from station: NNE 3mi, 4km
Updated: 23/05/2017 15:00
Mostly cloudy
Mostly cloudy
 Wind from ESE
Wind: ESE 15 mph , 24 km/h
Temperature: 86°F , 30°C
Heat Index: 95°F , 35°C
Dew Point: 75°F , 24°C
Humidity: 70%
Barometer: 1012 hPa
Clouds: Mostly cloudy
Visibility: 6 miles , 10 km
Cloud details: Few Clouds 1800 ft
Mostly cloudy 4000 ft
2017/05/23 20:00 MWCR 232000Z 11013KT 9999 FEW018 BKN040 30/24 Q1012 NOSIG
MWCB - Gerrard Smith, Cayman Brac
Distance from station: ENE 102mi, 164km
Updated: 23/05/2017 15:00
Few Clouds
Few Clouds
 Wind from ESE
Wind: ESE 9 mph , 15 km/h
Temperature: 88°F , 31°C
Heat Index: 103°F , 39°C
Dew Point: 79°F , 26°C
Humidity: 75%
Barometer: 1013 hPa
Clouds: Few Clouds
Visibility: 6 miles , 10 km
Cloud details: Few Clouds 1800 ft
2017/05/23 20:00 MWCB 232000Z 12008KT 9999 FEW018 31/26 Q1013
 
MUCL - Cayo Largo D Sur, Cuba
Distance from station: N 164mi, 264km
Updated: 23/05/2017 14:51
Few Clouds
Few Clouds
 Wind from SE
Wind: SE 15 mph , 24 km/h
Temperature: 86°F , 30°C
Heat Index: 92°F , 33°C
Dew Point: 72°F , 22°C
Humidity: 62%
Barometer: 1013 hPa
Clouds: Few Clouds
Visibility: 6 miles , 9 km
Cloud details: Few Clouds 2000 ft
2017/05/23 19:51 MUCL 231951Z 13013KT 110V170 9000 FEW020 30/22 Q1013
MUCF - Cienfuegos(Civ/M, Cuba
Distance from station: NNE 208mi, 335km
Updated: 23/05/2017 14:51
Partly cloudy
Partly cloudy
 Wind from SSW
Wind: SSW 15 mph , 24 km/h
Temperature: 88°F , 31°C
Heat Index: 96°F , 36°C
Dew Point: 73°F , 23°C
Humidity: 62%
Barometer: 1013 hPa
Clouds: Partly cloudy
Visibility: 6 miles , 10 km
Cloud details: Few Clouds 2000 ft
Partly cloudy 20000 ft
2017/05/23 19:51 MUCF 231951Z 21013KT 9999 FEW020 SCT200 31/23 Q1013
 
MKJS - Sangster/Montego Bay, Jamaica
Distance from station: ESE 233mi, 375km
Updated: 23/05/2017 15:00
Partly cloudy
Partly cloudy
 Wind from E
Wind: E 16 mph , 26 km/h
Temperature: 90°F , 32°C
Heat Index: 107°F , 42°C
Dew Point: 79°F , 26°C
Humidity: 71%
Barometer: 1011 hPa
Clouds: Partly cloudy
Visibility: 6 miles , 10 km
Cloud details: Few Clouds 2200 ft
Partly cloudy 3400 ft
2017/05/23 20:00 MKJS 232000Z 09014KT 9999 FEW022CB SCT034 32/26 Q1011
MUSC - Santa Clara, Cuba
Distance from station: NNE 242mi, 389km
Updated: 23/05/2017 15:11
Light rain, Showers, Mostly cloudy
Light rain, Showers, Mostly cloudy
 Wind from SW
Wind: SW 17 mph , 28 km/h
Temperature: 77°F , 25°C
Dew Point: 68°F , 20°C
Humidity: 74%
Barometer: 1014 hPa
Summary: Light rain, Showers
Clouds: Mostly cloudy
Visibility: 5 miles , 8 km
Cloud details: Mostly cloudy 2000 ft
2017/05/23 20:11 MUSC 232011Z 23015KT 200V260 8000 -SHRA BKN020 25/20 Q1014
 
MUVR - Varadero, Cuba
Distance from station: N 260mi, 419km
Updated: 23/05/2017 14:51
Mostly cloudy
Mostly cloudy
 Wind from SSW
Wind: SSW 8 mph , 13 km/h
Temperature: 90°F , 32°C
Heat Index: 97°F , 36°C
Dew Point: 72°F , 22°C
Humidity: 55%
Barometer: 1013 hPa
Clouds: Mostly cloudy
Visibility: 6 miles , 9 km
Cloud details: Partly cloudy 1900 ft
Mostly cloudy 2000 ft
2017/05/23 19:51 MUVR 231951Z 20007KT 170V230 9000 SCT019TCU BKN020 32/22 Q1013
MUHA - Havana/Jose Mar, Cuba
Distance from station: NNW 264mi, 425km
Updated: 23/05/2017 14:55
Mostly cloudy
Mostly cloudy
 Wind from S
Wind: S 9 mph , 15 km/h
Temperature: 88°F , 31°C
Heat Index: 92°F , 33°C
Dew Point: 68°F , 20°C
Humidity: 52%
Barometer: 1013 hPa
Clouds: Mostly cloudy
Visibility: 6 miles , 9 km
Cloud details: Mostly cloudy 3300 ft
2017/05/23 19:55 MUHA 231955Z 19008KT 140V230 9000 BKN033 31/20 Q1013
 
MUCM - Camaguey/Iganci, Cuba
Distance from station: NE 273mi, 439km
Updated: 23/05/2017 14:51
Mostly cloudy
Mostly cloudy
 Wind from SSW
Wind: SSW 7 mph , 11 km/h
Temperature: 88°F , 31°C
Heat Index: 91°F , 33°C
Dew Point: 66°F , 19°C
Humidity: 49%
Barometer: 1014 hPa
Clouds: Mostly cloudy
Visibility: 6 miles , 10 km
Cloud details: Mostly cloudy 2000 ft
2017/05/23 19:51 MUCM 231951Z 20006KT 160V240 9999 BKN020TCU 31/19 Q1014
MUMZ - Manzanillo, Cuba
Distance from station: ENE 287mi, 462km
Updated: 11/10/2016 09:50
NOT Current
Partly cloudy
Partly cloudy
 Wind from ENE
Wind: ENE 12 mph , 19 km/h
Temperature: 84°F , 29°C
Heat Index: 89°F , 32°C
Dew Point: 72°F , 22°C
Humidity: 66%
Barometer: 1014 hPa
Clouds: Partly cloudy
Visibility: 6 miles , 9 km
Cloud details: Partly cloudy 2000 ft
2016/10/11 14:50 MUMZ 111450Z 07010KT 9000 SCT020 29/22 Q1014
 
MUCC - Canagua, Cuba
Distance from station: NE 296mi, 476km
Updated: 23/05/2017 14:50
Few Clouds
Few Clouds
 Wind from E
Wind: E 13 mph , 20 km/h
Temperature: 86°F , 30°C
Heat Index: 95°F , 35°C
Dew Point: 75°F , 24°C
Humidity: 70%
Barometer: 1013 hPa
Clouds: Few Clouds
Visibility: 6 miles , 9 km
Cloud details: Few Clouds 2000 ft
2017/05/23 19:50 MUCC 231950Z 08011KT 9000 FEW020 30/24 Q1013
MKJP - Kingston/Norman Manley, Jamaica
Distance from station: ESE 315mi, 507km
Updated: 23/05/2017 18:00
Few Clouds
Few Clouds
 Wind from SE
Wind: SE 23 mph , 37 km/h
Temperature: 88°F , 31°C
Heat Index: 100°F , 38°C
Dew Point: 77°F , 25°C
Humidity: 70%
Barometer: 1012 hPa
Clouds: Few Clouds
Visibility: 6 miles , 10 km
Cloud details: Few Clouds 2200 ft
2017/05/23 23:00 MKJP 232300Z 13020KT 9999 FEW022 31/25 Q1012
 
MHPL - Puerto Lempira, Honduras
Distance from station: SSW 318mi, 513km
Updated: 23/05/2017 14:00
NOT Current
Mostly cloudy
Mostly cloudy
 Wind from E
Wind: E 9 mph , 15 km/h
Temperature: 90°F , 32°C
Heat Index: 101°F , 38°C
Dew Point: 75°F , 24°C
Humidity: 63%
Barometer: 1011 hPa
Clouds: Mostly cloudy
Visibility: 6 miles , 10 km
Cloud details: Mostly cloudy 2800 ft
2017/05/23 19:00 MHPL 231900Z 08008KT 9999 BKN028TCU 32/24 Q1011 TCU ALL HZ
MUHG - Holguin (civ/Mil, Cuba
Distance from station: ENE 345mi, 555km
Updated: 23/05/2017 14:51
Mostly cloudy
Mostly cloudy
 Wind from S
Wind: S 12 mph , 19 km/h
Temperature: 91°F , 33°C
Heat Index: 98°F , 37°C
Dew Point: 72°F , 22°C
Humidity: 52%
Barometer: 1013 hPa
Clouds: Mostly cloudy
Visibility: 6 miles , 9 km
Cloud details: Mostly cloudy 2000 ft
2017/05/23 19:51 MUHG 231951Z 18010KT 130V210 9000 BKN020TCU 33/22 Q1013